createdAt,value
2022-12-17T00:02:17.865Z,96.79
2022-12-17T00:07:27.990Z,96.72
2022-12-17T00:12:38.483Z,96.17
2022-12-17T00:17:48.912Z,95.97
2022-12-17T00:22:59.674Z,95.75
2022-12-17T00:28:10.209Z,95.99
2022-12-17T00:33:20.674Z,96.31
2022-12-17T00:38:37.854Z,96.80
2022-12-17T00:43:48.542Z,97.27
2022-12-17T00:48:59.650Z,97.58
2022-12-17T00:54:10.005Z,98.51
2022-12-17T00:59:20.611Z,98.55
2022-12-17T01:04:30.947Z,98.51
2022-12-17T01:09:41.311Z,98.67
2022-12-17T01:14:51.689Z,98.87
2022-12-17T01:20:02.147Z,99.24
2022-12-17T01:25:12.667Z,99.43
2022-12-17T01:30:23.186Z,99.40
2022-12-17T01:35:33.719Z,99.97
2022-12-17T01:40:44.207Z,100.00
2022-12-17T01:46:02.283Z,99.48
2022-12-17T01:51:15.230Z,99.18
2022-12-17T01:56:27.272Z,99.50
2022-12-17T02:01:38.103Z,98.97
2022-12-17T02:06:54.006Z,98.50
2022-12-17T02:12:43.816Z,98.10
2022-12-17T02:18:08.685Z,98.11
2022-12-17T02:23:40.134Z,98.03
2022-12-17T02:29:03.207Z,98.47
2022-12-17T02:34:24.787Z,99.06
2022-12-17T02:39:35.022Z,99.56
2022-12-17T02:44:47.424Z,100.00
2022-12-17T02:49:57.866Z,100.00
2022-12-17T02:55:08.175Z,100.00
2022-12-17T03:00:18.685Z,100.00
2022-12-17T03:05:44.545Z,100.00
2022-12-17T03:10:55.182Z,100.00
2022-12-17T03:16:05.833Z,100.00
2022-12-17T03:21:16.348Z,100.00
2022-12-17T03:26:26.812Z,100.00
2022-12-17T03:31:37.045Z,100.00
2022-12-17T03:36:48.412Z,100.00
2022-12-17T03:41:58.946Z,100.00
2022-12-17T03:47:09.119Z,100.00
2022-12-17T03:52:19.702Z,100.00
2022-12-17T03:57:30.275Z,100.00
2022-12-17T04:02:40.749Z,100.00
2022-12-17T04:07:51.338Z,100.00
2022-12-17T04:13:01.800Z,100.00
2022-12-17T04:18:14.883Z,100.00
2022-12-17T04:23:24.904Z,100.00
2022-12-17T04:28:35.181Z,100.00
2022-12-17T04:33:45.475Z,100.00
2022-12-17T04:38:56.037Z,100.00
2022-12-17T04:44:17.255Z,100.00
2022-12-17T04:49:27.056Z,100.00
2022-12-17T04:54:37.260Z,100.00
2022-12-17T04:59:47.413Z,100.00
2022-12-17T05:04:57.668Z,100.00
2022-12-17T05:10:08.025Z,100.00
2022-12-17T05:15:17.993Z,100.00
2022-12-17T05:20:28.397Z,100.00
2022-12-17T05:25:38.689Z,100.00
2022-12-17T05:30:48.768Z,100.00
2022-12-17T05:35:59.075Z,100.00
2022-12-17T05:41:10.051Z,100.00
2022-12-17T05:46:21.815Z,100.00
2022-12-17T05:51:37.053Z,100.00
2022-12-17T05:56:48.704Z,100.00
2022-12-17T06:01:58.915Z,100.00
2022-12-17T06:07:09.167Z,100.00
2022-12-17T06:12:20.101Z,100.00
2022-12-17T06:17:30.569Z,100.00
2022-12-17T06:22:40.953Z,100.00
2022-12-17T06:27:51.144Z,100.00
2022-12-17T06:33:01.736Z,100.00
2022-12-17T06:38:24.118Z,100.00
2022-12-17T06:43:34.744Z,100.00
2022-12-17T06:48:45.263Z,100.00
2022-12-17T06:53:55.674Z,100.00
2022-12-17T06:59:05.910Z,100.00
2022-12-17T07:04:16.479Z,100.00
2022-12-17T07:09:27.659Z,100.00
2022-12-17T07:14:38.068Z,100.00
2022-12-17T07:19:48.179Z,100.00
2022-12-17T07:24:58.507Z,100.00
2022-12-17T07:30:08.363Z,100.00
2022-12-17T07:35:18.290Z,100.00
2022-12-17T07:40:29.213Z,100.00
2022-12-17T07:45:39.844Z,100.00
2022-12-17T07:50:49.823Z,100.00
2022-12-17T07:55:59.724Z,100.00
2022-12-17T08:01:10.267Z,100.00
2022-12-17T08:06:20.829Z,100.00
2022-12-17T08:11:31.201Z,100.00
2022-12-17T08:16:41.674Z,100.00
2022-12-17T08:21:52.235Z,100.00
2022-12-17T08:27:02.941Z,100.00
2022-12-17T08:32:13.570Z,100.00
2022-12-17T08:37:24.052Z,100.00
2022-12-17T08:42:34.401Z,100.00
2022-12-17T08:47:44.766Z,100.00
2022-12-17T08:52:55.380Z,100.00
2022-12-17T08:58:16.301Z,100.00
2022-12-17T09:03:27.369Z,100.00
2022-12-17T09:08:37.547Z,100.00
2022-12-17T09:13:48.028Z,100.00
2022-12-17T09:18:58.875Z,100.00
2022-12-17T09:24:09.211Z,100.00
2022-12-17T09:29:19.759Z,100.00
2022-12-17T09:34:30.302Z,100.00
2022-12-17T09:39:41.034Z,100.00
2022-12-17T09:45:21.918Z,100.00
2022-12-17T09:50:34.436Z,100.00
2022-12-17T09:55:58.401Z,100.00
2022-12-17T10:01:09.799Z,100.00
2022-12-17T10:06:28.434Z,100.00
2022-12-17T10:11:40.344Z,100.00
2022-12-17T10:17:00.347Z,100.00
2022-12-17T10:22:10.729Z,100.00
2022-12-17T10:27:36.541Z,100.00
2022-12-17T10:32:47.716Z,100.00
2022-12-17T10:37:58.239Z,98.29
2022-12-17T10:43:08.691Z,96.94
2022-12-17T10:48:19.168Z,97.56
2022-12-17T10:53:40.054Z,97.60
2022-12-17T10:58:50.816Z,97.60
2022-12-17T11:04:13.103Z,97.86
2022-12-17T11:09:23.533Z,97.89
2022-12-17T11:14:34.002Z,97.32
2022-12-17T11:19:58.821Z,97.98
2022-12-17T11:25:16.203Z,98.00
2022-12-17T11:30:34.041Z,98.34
2022-12-17T11:35:56.315Z,97.59
2022-12-17T11:41:29.998Z,97.20
2022-12-17T11:47:12.587Z,96.53
2022-12-17T11:52:48.564Z,95.89
2022-12-17T11:58:19.195Z,95.86
2022-12-17T12:03:49.093Z,96.11
2022-12-17T12:09:23.377Z,96.27
2022-12-17T12:15:02.797Z,96.11
2022-12-17T12:20:21.930Z,96.06
2022-12-17T12:25:47.316Z,96.10
2022-12-17T12:31:35.650Z,96.43
2022-12-17T12:36:46.850Z,96.15
2022-12-17T12:42:20.202Z,95.94
2022-12-17T12:47:40.923Z,96.10
2022-12-17T12:52:51.263Z,95.71
2022-12-17T12:58:16.152Z,95.77
2022-12-17T13:03:44.248Z,95.74
2022-12-17T13:08:37.090Z,95.94
2022-12-17T13:13:39.916Z,95.67
2022-12-17T13:18:37.955Z,95.88
2022-12-17T13:23:32.077Z,95.61
2022-12-17T13:28:31.064Z,94.99
2022-12-17T13:33:41.915Z,94.96
2022-12-17T13:39:15.664Z,94.85
2022-12-17T13:44:25.518Z,94.71
2022-12-17T13:49:22.039Z,94.95
2022-12-17T13:54:19.606Z,95.45
2022-12-17T13:59:19.063Z,95.23
2022-12-17T14:04:29.560Z,94.92
2022-12-17T14:09:23.843Z,95.58
2022-12-17T14:14:28.936Z,95.52
2022-12-17T14:19:20.833Z,95.14
2022-12-17T14:24:14.108Z,95.66
2022-12-17T14:29:13.496Z,95.76
2022-12-17T14:34:11.580Z,95.70
2022-12-17T14:39:11.204Z,95.81
2022-12-17T14:44:04.254Z,95.79
2022-12-17T14:49:03.612Z,95.81
2022-12-17T14:54:06.604Z,95.62
2022-12-17T14:58:58.384Z,95.71
2022-12-17T15:03:50.229Z,95.93
2022-12-17T15:08:47.369Z,95.83
2022-12-17T15:13:39.123Z,95.13
2022-12-17T15:18:30.851Z,94.84
2022-12-17T15:23:23.572Z,94.95
2022-12-17T15:28:17.533Z,95.09
2022-12-17T15:33:10.014Z,95.40
2022-12-17T15:38:01.968Z,95.38
2022-12-17T15:43:12.205Z,95.31
2022-12-17T15:48:03.919Z,95.61
2022-12-17T15:52:55.591Z,95.35
2022-12-17T15:57:47.152Z,95.58
2022-12-17T16:02:39.215Z,95.69
2022-12-17T16:07:31.237Z,95.56
2022-12-17T16:12:22.912Z,95.72
2022-12-17T16:17:14.621Z,95.15
2022-12-17T16:22:06.902Z,95.40
2022-12-17T16:27:04.392Z,95.18
2022-12-17T16:31:56.391Z,94.97
2022-12-17T16:36:48.121Z,95.40
2022-12-17T16:41:39.742Z,95.51
2022-12-17T16:46:36.468Z,95.93
2022-12-17T16:51:29.733Z,95.89
2022-12-17T16:56:23.726Z,95.87
2022-12-17T17:01:24.542Z,95.65
2022-12-17T17:06:17.825Z,96.17
2022-12-17T17:11:16.502Z,96.50
2022-12-17T17:16:10.046Z,96.59
2022-12-17T17:21:25.154Z,96.67
2022-12-17T17:26:17.567Z,97.14
2022-12-17T17:31:12.699Z,97.26
2022-12-17T17:36:14.239Z,97.39
2022-12-17T17:41:07.877Z,97.51
2022-12-17T17:46:14.698Z,97.54
2022-12-17T17:52:07.110Z,97.67
2022-12-17T17:56:43.596Z,97.64
2022-12-17T18:01:40.378Z,97.67
2022-12-17T18:06:32.698Z,97.35
2022-12-17T18:11:25.341Z,97.51
2022-12-17T18:16:17.989Z,96.97
2022-12-17T18:21:13.907Z,97.61
2022-12-17T18:26:14.128Z,97.77
2022-12-17T18:31:18.192Z,97.56
2022-12-17T18:36:16.032Z,97.11
2022-12-17T18:41:30.621Z,97.34
2022-12-17T18:46:23.579Z,97.23
2022-12-17T18:51:15.282Z,97.43
2022-12-17T18:56:11.164Z,97.17
2022-12-17T19:01:03.573Z,97.39
2022-12-17T19:05:55.404Z,97.37
2022-12-17T19:10:47.039Z,97.45
2022-12-17T19:15:38.658Z,97.49
2022-12-17T19:20:30.321Z,97.53
2022-12-17T19:25:22.089Z,97.39
2022-12-17T19:30:13.864Z,97.66
2022-12-17T19:35:05.820Z,98.03
2022-12-17T19:39:57.549Z,97.54
2022-12-17T19:44:49.265Z,98.11
2022-12-17T19:49:41.311Z,98.04
2022-12-17T19:54:32.983Z,98.52
2022-12-17T19:59:24.743Z,98.70
2022-12-17T20:04:16.996Z,98.85
2022-12-17T20:09:08.655Z,98.88
2022-12-17T20:14:04.121Z,98.44
2022-12-17T20:18:56.112Z,98.03
2022-12-17T20:23:49.285Z,98.47
2022-12-17T20:28:41.344Z,98.38
2022-12-17T20:33:33.573Z,98.73
2022-12-17T20:38:25.251Z,98.58
2022-12-17T20:43:17.023Z,98.97
2022-12-17T20:48:08.774Z,98.53
2022-12-17T20:53:00.532Z,98.58
2022-12-17T20:57:52.300Z,98.66
2022-12-17T21:02:43.959Z,98.90
2022-12-17T21:07:35.720Z,98.71
2022-12-17T21:12:47.450Z,98.96
2022-12-17T21:17:39.253Z,99.03
2022-12-17T21:22:30.908Z,98.80
2022-12-17T21:27:23.025Z,99.73
2022-12-17T21:32:15.623Z,100.00
2022-12-17T21:37:07.423Z,100.00
2022-12-17T21:42:20.181Z,100.00
2022-12-17T21:47:12.043Z,100.00
2022-12-17T21:52:04.035Z,100.00
2022-12-17T21:56:58.763Z,100.00
2022-12-17T22:01:51.159Z,100.00
2022-12-17T22:06:46.293Z,100.00
2022-12-17T22:11:40.949Z,100.00
2022-12-17T22:16:34.427Z,100.00
2022-12-17T22:21:26.972Z,100.00
2022-12-17T22:26:20.264Z,100.00
2022-12-17T22:31:31.597Z,100.00
2022-12-17T22:38:39.372Z,99.33
2022-12-17T22:44:38.822Z,99.42
2022-12-17T22:47:08.941Z,98.61
2022-12-17T22:52:00.723Z,97.58
2022-12-17T22:57:34.994Z,97.41
2022-12-17T23:02:04.408Z,96.89
2022-12-17T23:06:56.149Z,96.20
2022-12-17T23:11:49.028Z,95.92
2022-12-17T23:16:41.519Z,95.30
2022-12-17T23:21:33.507Z,94.90
2022-12-17T23:26:28.193Z,94.48
2022-12-17T23:31:21.524Z,94.19
2022-12-17T23:36:16.090Z,94.18
2022-12-17T23:41:10.515Z,93.88
2022-12-17T23:46:02.532Z,93.47
2022-12-17T23:50:54.367Z,92.87
2022-12-17T23:55:46.060Z,92.47
